createdAt,value
2023-03-13T00:02:40.776Z,97743.69
2023-03-13T00:05:43.390Z,97736.50
2023-03-13T00:08:46.305Z,97734.34
2023-03-13T00:11:50.343Z,97738.91
2023-03-13T00:14:52.944Z,97734.09
2023-03-13T00:17:55.516Z,97725.53
2023-03-13T00:21:01.441Z,97723.16
2023-03-13T00:24:05.019Z,97726.34
2023-03-13T00:27:08.968Z,97717.28
2023-03-13T00:30:12.847Z,97714.88
2023-03-13T00:33:15.474Z,97703.66
2023-03-13T00:36:19.396Z,97706.59
2023-03-13T00:39:22.578Z,97710.59
2023-03-13T00:42:26.567Z,97703.13
2023-03-13T00:45:29.389Z,97702.06
2023-03-13T00:48:33.099Z,97694.56
2023-03-13T00:51:36.004Z,97693.78
2023-03-13T00:54:39.395Z,97689.50
2023-03-13T00:57:43.507Z,97688.69
2023-03-13T01:00:46.502Z,97688.41
2023-03-13T01:03:52.241Z,97673.97
2023-03-13T01:06:54.995Z,97675.28
2023-03-13T01:09:57.763Z,97666.72
2023-03-13T01:13:02.082Z,97658.72
2023-03-13T01:16:06.548Z,97659.75
2023-03-13T01:19:13.112Z,97653.63
2023-03-13T01:22:16.138Z,97637.28
2023-03-13T01:25:19.036Z,97635.41
2023-03-13T01:28:23.400Z,97638.28
2023-03-13T01:31:28.065Z,97626.75
2023-03-13T01:34:30.828Z,97622.16
2023-03-13T01:37:34.572Z,97617.03
2023-03-13T01:40:41.928Z,97612.44
2023-03-13T01:43:46.854Z,97600.09
2023-03-13T01:46:49.762Z,97598.72
2023-03-13T01:49:53.750Z,97593.31
2023-03-13T01:52:56.551Z,97588.47
2023-03-13T01:56:02.086Z,97583.63
2023-03-13T01:59:09.343Z,97587.59
2023-03-13T02:02:12.680Z,97569.63
2023-03-13T02:05:17.156Z,97551.16
2023-03-13T02:08:26.565Z,97558.59
2023-03-13T02:11:40.891Z,97549.50
2023-03-13T02:14:47.133Z,97537.72
2023-03-13T02:17:51.368Z,97542.47
2023-03-13T02:21:02.410Z,97546.78
2023-03-13T02:24:14.913Z,97551.28
2023-03-13T02:27:19.064Z,97541.09
2023-03-13T02:30:22.140Z,97541.09
2023-03-13T02:33:28.757Z,97537.84
2023-03-13T02:36:32.059Z,97530.88
2023-03-13T02:39:35.711Z,97522.59
2023-03-13T02:42:42.335Z,97513.16
2023-03-13T02:46:02.143Z,97500.81
2023-03-13T02:49:20.587Z,97490.63
2023-03-13T02:52:27.293Z,97494.41
2023-03-13T02:55:34.149Z,97481.81
2023-03-13T02:58:49.237Z,97478.84
2023-03-13T03:01:53.617Z,97471.63
2023-03-13T03:04:56.375Z,97459.91
2023-03-13T03:07:59.178Z,97466.38
2023-03-13T03:11:02.183Z,97470.91
2023-03-13T03:14:06.586Z,97461.56
2023-03-13T03:17:09.484Z,97450.88
2023-03-13T03:20:12.935Z,97445.28
2023-03-13T03:23:15.851Z,97452.81
2023-03-13T03:26:19.225Z,97444.56
2023-03-13T03:29:23.265Z,97447.75
2023-03-13T03:32:25.991Z,97436.81
2023-03-13T03:35:29.146Z,97447.03
2023-03-13T03:38:32.965Z,97436.84
2023-03-13T03:41:35.844Z,97435.81
2023-03-13T03:44:39.942Z,97434.75
2023-03-13T03:47:42.919Z,97434.25
2023-03-13T03:50:45.874Z,97434.75
2023-03-13T03:53:48.699Z,97422.72
2023-03-13T03:56:51.505Z,97425.41
2023-03-13T03:59:55.653Z,97430.25
2023-03-13T04:02:58.601Z,97428.66
2023-03-13T04:06:01.514Z,97422.50
2023-03-13T04:09:04.844Z,97405.34
2023-03-13T04:12:08.368Z,97411.97
2023-03-13T04:15:13.332Z,97405.81
2023-03-13T04:18:16.589Z,97402.63
2023-03-13T04:21:19.308Z,97403.88
2023-03-13T04:24:22.210Z,97396.44
2023-03-13T04:27:25.140Z,97390.25
2023-03-13T04:30:29.391Z,97393.47
2023-03-13T04:33:32.287Z,97380.38
2023-03-13T04:36:34.976Z,97378.91
2023-03-13T04:39:37.822Z,97398.19
2023-03-13T04:42:41.023Z,97391.72
2023-03-13T04:45:45.309Z,97388.25
2023-03-13T04:48:48.159Z,97395.09
2023-03-13T04:51:50.953Z,97379.97
2023-03-13T04:54:53.759Z,97381.75
2023-03-13T04:57:56.629Z,97382.16
2023-03-13T05:01:00.925Z,97377.91
2023-03-13T05:04:03.628Z,97375.28
2023-03-13T05:07:06.481Z,97383.75
2023-03-13T05:10:10.062Z,97381.94
2023-03-13T05:13:12.906Z,97379.78
2023-03-13T05:16:17.200Z,97369.81
2023-03-13T05:19:20.015Z,97378.56
2023-03-13T05:22:22.758Z,97388.13
2023-03-13T05:25:25.507Z,97382.84
2023-03-13T05:28:28.343Z,97385.44
2023-03-13T05:31:32.696Z,97380.03
2023-03-13T05:34:35.385Z,97383.78
2023-03-13T05:37:40.850Z,97372.72
2023-03-13T05:40:44.012Z,97362.19
2023-03-13T05:43:46.728Z,97366.53
2023-03-13T05:46:50.857Z,97366.94
2023-03-13T05:49:53.805Z,97367.53
2023-03-13T05:52:56.538Z,97370.97
2023-03-13T05:55:59.253Z,97367.53
2023-03-13T05:59:01.958Z,97350.09
2023-03-13T06:02:06.292Z,97355.59
2023-03-13T06:05:09.551Z,97361.03
2023-03-13T06:08:12.273Z,97376.94
2023-03-13T06:11:15.170Z,97369.28
2023-03-13T06:14:17.908Z,97362.44
2023-03-13T06:17:22.234Z,97374.66
2023-03-13T06:20:25.028Z,97361.59
2023-03-13T06:23:28.195Z,97361.66
2023-03-13T06:26:31.025Z,97370.25
2023-03-13T06:29:33.795Z,97360.91
2023-03-13T06:32:38.089Z,97359.69
2023-03-13T06:35:55.209Z,97358.94
2023-03-13T06:38:58.918Z,97358.94
2023-03-13T06:42:01.631Z,97350.78
2023-03-13T06:45:04.812Z,97350.72
2023-03-13T06:48:09.233Z,97372.75
2023-03-13T06:51:13.150Z,97362.78
2023-03-13T06:54:15.924Z,97375.22
2023-03-13T06:57:18.604Z,97387.09
2023-03-13T07:00:22.418Z,97376.94
2023-03-13T07:03:26.811Z,97377.78
2023-03-13T07:06:29.750Z,97381.56
2023-03-13T07:09:32.604Z,97374.78
2023-03-13T07:12:35.626Z,97378.16
2023-03-13T07:15:40.401Z,97377.72
2023-03-13T07:18:45.117Z,97379.81
2023-03-13T07:21:49.793Z,97383.47
2023-03-13T07:24:52.702Z,97385.75
2023-03-13T07:27:55.497Z,97381.38
2023-03-13T07:31:05.334Z,97381.47
2023-03-13T07:34:09.600Z,97371.28
2023-03-13T07:37:12.729Z,97368.25
2023-03-13T07:40:15.555Z,97367.31
2023-03-13T07:43:18.767Z,97357.00
2023-03-13T07:46:21.774Z,97352.69
2023-03-13T07:49:26.835Z,97352.25
2023-03-13T07:52:29.788Z,97353.66
2023-03-13T07:55:32.567Z,97345.69
2023-03-13T07:58:36.943Z,97331.28
2023-03-13T08:01:39.727Z,97340.00
2023-03-13T08:04:44.149Z,97324.97
2023-03-13T08:07:46.938Z,97329.28
2023-03-13T08:10:49.871Z,97320.44
2023-03-13T08:13:53.271Z,97306.81
2023-03-13T08:16:56.043Z,97309.88
2023-03-13T08:20:00.169Z,97302.59
2023-03-13T08:23:02.890Z,97285.34
2023-03-13T08:26:07.976Z,97297.88
2023-03-13T08:29:12.506Z,97296.78
2023-03-13T08:32:15.353Z,97302.19
2023-03-13T08:35:19.478Z,97307.41
2023-03-13T08:38:22.187Z,97297.44
2023-03-13T08:41:26.992Z,97302.66
2023-03-13T08:44:29.793Z,97307.25
2023-03-13T08:47:33.417Z,97299.16
2023-03-13T08:50:37.608Z,97299.03
2023-03-13T08:53:41.956Z,97303.00
2023-03-13T08:56:44.721Z,97309.81
2023-03-13T08:59:47.524Z,97300.44
2023-03-13T09:02:50.249Z,97301.06
2023-03-13T09:05:56.254Z,97294.25
2023-03-13T09:08:59.518Z,97296.16
2023-03-13T09:12:02.347Z,97298.81
2023-03-13T09:15:05.740Z,97295.84
2023-03-13T09:18:08.660Z,97295.84
2023-03-13T09:21:15.507Z,97293.41
2023-03-13T09:24:18.663Z,97287.50
2023-03-13T09:27:21.673Z,97288.72
2023-03-13T09:30:24.696Z,97302.00
2023-03-13T09:33:27.630Z,97306.44
2023-03-13T09:36:31.941Z,97294.84
2023-03-13T09:39:34.635Z,97310.34
2023-03-13T09:42:46.670Z,97300.69
2023-03-13T09:45:53.370Z,97301.44
2023-03-13T09:49:00.775Z,97295.72
2023-03-13T09:52:16.581Z,97300.44
2023-03-13T09:55:22.098Z,97281.09
2023-03-13T09:58:29.631Z,97268.03
2023-03-13T10:01:34.524Z,97259.53
2023-03-13T10:04:43.981Z,97252.69
2023-03-13T10:07:48.715Z,97254.59
2023-03-13T10:10:57.487Z,97256.84
2023-03-13T10:14:05.768Z,97260.44
2023-03-13T10:17:17.710Z,97249.19
2023-03-13T10:20:25.492Z,97246.44
2023-03-13T10:23:40.488Z,97241.59
2023-03-13T10:26:43.390Z,97228.94
2023-03-13T10:29:46.290Z,97232.97
2023-03-13T10:32:49.396Z,97231.25
2023-03-13T10:36:05.794Z,97238.59
2023-03-13T10:39:16.854Z,97223.84
2023-03-13T10:42:24.796Z,97226.47
2023-03-13T10:45:28.449Z,97229.03
2023-03-13T10:48:37.420Z,97218.06
2023-03-13T10:51:41.822Z,97224.19
2023-03-13T10:54:46.820Z,97216.97
2023-03-13T10:57:59.819Z,97202.22
2023-03-13T11:01:18.885Z,97202.53
2023-03-13T11:04:30.836Z,97208.44
2023-03-13T11:07:36.121Z,97221.22
2023-03-13T11:10:54.725Z,97208.09
2023-03-13T11:14:09.722Z,97199.13
2023-03-13T11:17:31.505Z,97203.28
2023-03-13T11:20:36.978Z,97190.22
2023-03-13T11:23:46.207Z,97174.06
2023-03-13T11:27:04.752Z,97172.09
2023-03-13T11:30:20.747Z,97153.84
2023-03-13T11:33:37.697Z,97150.56
2023-03-13T11:36:48.862Z,97135.34
2023-03-13T11:40:10.984Z,97133.72
2023-03-13T11:43:35.420Z,97138.44
2023-03-13T11:46:51.176Z,97109.38
2023-03-13T11:50:27.343Z,97103.00
2023-03-13T11:53:46.167Z,97083.09
2023-03-13T11:56:55.310Z,97072.28
2023-03-13T12:00:20.209Z,97072.56
2023-03-13T12:03:32.805Z,97061.44
2023-03-13T12:06:39.145Z,97052.31
2023-03-13T12:09:45.724Z,97048.16
2023-03-13T12:12:53.339Z,97053.75
2023-03-13T12:16:01.700Z,97034.00
2023-03-13T12:19:04.549Z,97025.63
2023-03-13T12:22:16.148Z,97024.56
2023-03-13T12:25:24.883Z,97011.00
2023-03-13T12:28:36.150Z,96993.19
2023-03-13T12:31:44.974Z,96985.03
2023-03-13T12:34:56.582Z,96973.38
2023-03-13T12:38:06.410Z,96966.88
2023-03-13T12:41:20.678Z,96951.84
2023-03-13T12:44:24.841Z,96947.59
2023-03-13T12:47:33.526Z,96944.59
2023-03-13T12:50:45.917Z,96918.13
2023-03-13T12:54:25.407Z,96904.91
2023-03-13T12:58:10.531Z,96889.00
2023-03-13T13:01:20.619Z,96882.38
2023-03-13T13:04:28.432Z,96882.63
2023-03-13T13:07:34.093Z,96880.59
2023-03-13T13:10:36.969Z,96869.59
2023-03-13T13:13:41.148Z,96857.47
2023-03-13T13:16:45.406Z,96842.22
2023-03-13T13:19:49.672Z,96841.84
2023-03-13T13:22:53.141Z,96841.84
2023-03-13T13:25:57.565Z,96832.38
2023-03-13T13:29:02.211Z,96835.34
2023-03-13T13:32:07.120Z,96825.94
2023-03-13T13:35:30.432Z,96804.25
2023-03-13T13:38:42.556Z,96801.84
2023-03-13T13:41:45.651Z,96784.25
2023-03-13T13:44:59.613Z,96795.31
2023-03-13T13:48:31.040Z,96777.03
2023-03-13T13:51:37.237Z,96767.28
2023-03-13T13:54:56.339Z,96762.16
2023-03-13T13:58:05.575Z,96755.94
2023-03-13T14:01:11.250Z,96745.84
2023-03-13T14:04:20.744Z,96746.59
2023-03-13T14:07:31.434Z,96736.78
2023-03-13T14:10:40.374Z,96736.38
2023-03-13T14:13:43.747Z,96716.19
2023-03-13T14:16:48.203Z,96720.91
2023-03-13T14:19:51.013Z,96707.63
2023-03-13T14:22:57.373Z,96714.72
2023-03-13T14:26:10.624Z,96706.25
2023-03-13T14:29:20.494Z,96695.78
2023-03-13T14:32:27.183Z,96683.44
2023-03-13T14:35:30.155Z,96676.91
2023-03-13T14:38:34.489Z,96678.91
2023-03-13T14:41:43.137Z,96662.56
2023-03-13T14:44:50.120Z,96650.53
2023-03-13T14:47:54.452Z,96641.19
2023-03-13T14:51:14.791Z,96641.66
2023-03-13T14:54:31.262Z,96624.47
2023-03-13T14:57:35.503Z,96622.50
2023-03-13T15:00:41.600Z,96614.69
2023-03-13T15:03:46.507Z,96601.41
2023-03-13T15:06:49.147Z,96605.34
2023-03-13T15:09:53.712Z,96580.34
2023-03-13T15:12:56.353Z,96572.94
2023-03-13T15:15:59.234Z,96551.78
2023-03-13T15:19:01.891Z,96556.44
2023-03-13T15:22:04.718Z,96552.13
2023-03-13T15:25:17.365Z,96529.84
2023-03-13T15:28:22.057Z,96513.88
2023-03-13T15:31:27.626Z,96506.78
2023-03-13T15:34:33.889Z,96508.28
2023-03-13T15:37:36.919Z,96500.06
2023-03-13T15:40:41.280Z,96499.28
2023-03-13T15:43:43.887Z,96496.13
2023-03-13T15:46:48.015Z,96480.19
2023-03-13T15:49:50.708Z,96477.44
2023-03-13T15:52:54.199Z,96473.53
2023-03-13T15:56:00.285Z,96449.72
2023-03-13T15:59:03.470Z,96454.78
2023-03-13T16:02:15.158Z,96450.53
2023-03-13T16:05:18.499Z,96447.78
2023-03-13T16:08:34.807Z,96446.25
2023-03-13T16:11:40.262Z,96433.41
2023-03-13T16:14:42.943Z,96428.31
2023-03-13T16:17:45.567Z,96418.56
2023-03-13T16:20:49.223Z,96413.88
2023-03-13T16:23:51.886Z,96415.41
2023-03-13T16:26:55.898Z,96412.56
2023-03-13T16:29:58.508Z,96408.97
2023-03-13T16:33:04.119Z,96414.81
2023-03-13T16:36:14.337Z,96409.72
2023-03-13T16:39:17.140Z,96399.84
2023-03-13T16:42:21.109Z,96400.28
2023-03-13T16:45:24.368Z,96405.59
2023-03-13T16:48:27.100Z,96393.16
2023-03-13T16:51:30.202Z,96400.38
2023-03-13T16:54:32.808Z,96411.63
2023-03-13T16:57:37.155Z,96399.25
2023-03-13T17:00:39.768Z,96392.22
2023-03-13T17:03:42.598Z,96382.16
2023-03-13T17:06:46.024Z,96379.13
2023-03-13T17:09:48.823Z,96378.56
2023-03-13T17:12:53.023Z,96373.03
2023-03-13T17:15:55.702Z,96364.66
2023-03-13T17:18:59.002Z,96363.88
2023-03-13T17:22:01.833Z,96359.50
2023-03-13T17:25:04.956Z,96348.00
2023-03-13T17:28:13.691Z,96349.38
2023-03-13T17:31:17.400Z,96344.94
2023-03-13T17:34:20.570Z,96342.72
2023-03-13T17:37:23.193Z,96328.97
2023-03-13T17:40:28.301Z,96321.84
2023-03-13T17:43:32.247Z,96325.13
2023-03-13T17:46:39.209Z,96321.84
2023-03-13T17:49:41.932Z,96301.44
2023-03-13T17:52:44.662Z,96302.84
2023-03-13T17:55:47.353Z,96298.78
2023-03-13T17:58:54.328Z,96287.78
2023-03-13T18:01:57.224Z,96281.47
2023-03-13T18:05:00.751Z,96270.53
2023-03-13T18:08:03.425Z,96262.66
2023-03-13T18:11:06.552Z,96249.81
2023-03-13T18:14:10.782Z,96241.97
2023-03-13T18:17:19.659Z,96245.38
2023-03-13T18:20:24.894Z,96244.94
2023-03-13T18:23:27.552Z,96261.91
2023-03-13T18:26:32.428Z,96290.88
2023-03-13T18:29:36.400Z,96375.41
2023-03-13T18:32:39.049Z,96388.28
2023-03-13T18:35:41.704Z,96388.69
2023-03-13T18:38:44.411Z,96385.94
2023-03-13T18:41:49.382Z,96453.81
2023-03-13T18:44:54.111Z,96477.91
2023-03-13T18:47:59.833Z,96486.34
2023-03-13T18:51:07.134Z,96404.81
2023-03-13T18:54:13.016Z,96364.84
2023-03-13T18:57:21.157Z,96383.28
2023-03-13T19:00:31.064Z,96426.84
2023-03-13T19:03:40.507Z,96414.28
2023-03-13T19:06:48.015Z,96325.94
2023-03-13T19:09:59.223Z,96266.81
2023-03-13T19:13:06.029Z,96283.09
2023-03-13T19:16:28.615Z,96284.59
2023-03-13T19:19:34.010Z,96304.06
2023-03-13T19:22:41.215Z,96335.91
2023-03-13T19:25:47.223Z,96370.59
2023-03-13T19:28:52.065Z,96364.31
2023-03-13T19:32:05.373Z,96385.47
2023-03-13T19:35:17.096Z,96425.47
2023-03-13T19:38:26.126Z,96444.41
2023-03-13T19:41:32.986Z,96453.25
2023-03-13T19:44:40.426Z,96474.28
2023-03-13T19:47:53.293Z,96493.94
2023-03-13T19:50:59.547Z,96482.16
2023-03-13T19:54:06.425Z,96465.41
2023-03-13T19:57:17.436Z,96497.16
2023-03-13T20:00:29.816Z,96536.31
2023-03-13T20:03:40.092Z,96565.03
2023-03-13T20:06:48.077Z,96609.41
2023-03-13T20:09:55.396Z,96652.06
2023-03-13T20:13:00.704Z,96677.47
2023-03-13T20:16:06.208Z,96706.91
2023-03-13T20:19:13.419Z,96712.19
2023-03-13T20:22:21.722Z,96700.75
2023-03-13T20:25:29.335Z,96711.06
2023-03-13T20:28:35.479Z,96729.09
2023-03-13T20:31:41.448Z,96736.84
2023-03-13T20:34:48.372Z,96718.06
2023-03-13T20:37:58.617Z,96719.31
2023-03-13T20:41:06.222Z,96719.78
2023-03-13T20:44:12.095Z,96723.88
2023-03-13T20:47:19.645Z,96731.00
2023-03-13T20:50:26.552Z,96742.06
2023-03-13T20:53:31.004Z,96721.34
2023-03-13T20:56:37.393Z,96708.53
2023-03-13T20:59:49.923Z,96710.59
2023-03-13T21:02:56.014Z,96715.59
2023-03-13T21:06:02.597Z,96711.19
2023-03-13T21:09:11.661Z,96709.75
2023-03-13T21:12:18.387Z,96669.28
2023-03-13T21:15:27.633Z,96655.88
2023-03-13T21:18:32.235Z,96712.44
2023-03-13T21:21:40.142Z,96742.03
2023-03-13T21:24:48.136Z,96753.44
2023-03-13T21:27:53.734Z,96748.03
2023-03-13T21:31:02.397Z,96751.97
2023-03-13T21:34:09.410Z,96775.22
2023-03-13T21:37:25.415Z,96747.44
2023-03-13T21:40:32.013Z,96688.31
2023-03-13T21:43:37.837Z,96658.47
2023-03-13T21:46:48.800Z,96680.75
2023-03-13T21:49:56.058Z,96681.53
2023-03-13T21:53:03.703Z,96675.66
2023-03-13T21:56:09.903Z,96664.75
2023-03-13T21:59:15.044Z,96655.91
2023-03-13T22:02:20.876Z,96618.63
2023-03-13T22:05:26.710Z,96571.53
2023-03-13T22:08:35.353Z,96587.13
2023-03-13T22:11:43.548Z,96567.38
2023-03-13T22:14:46.978Z,96552.06
2023-03-13T22:17:52.596Z,96591.75
2023-03-13T22:21:00.675Z,96591.91
2023-03-13T22:24:09.026Z,96570.28
2023-03-13T22:27:12.932Z,96551.94
2023-03-13T22:30:16.551Z,96540.25
2023-03-13T22:33:20.788Z,96527.50
2023-03-13T22:36:27.083Z,96538.72
2023-03-13T22:39:36.676Z,96539.84
2023-03-13T22:42:42.148Z,96530.66
2023-03-13T22:45:49.118Z,96516.28
2023-03-13T22:48:53.214Z,96533.81
2023-03-13T22:51:57.260Z,96545.78
2023-03-13T22:55:05.437Z,96561.59
2023-03-13T22:58:11.788Z,96568.72
2023-03-13T23:01:18.536Z,96580.69
2023-03-13T23:04:23.284Z,96586.38
2023-03-13T23:07:28.922Z,96587.19
2023-03-13T23:10:35.003Z,96598.81
2023-03-13T23:13:38.448Z,96598.81
2023-03-13T23:16:41.885Z,96598.00
2023-03-13T23:19:45.446Z,96600.88
2023-03-13T23:22:50.223Z,96579.59
2023-03-13T23:25:54.353Z,96553.69
2023-03-13T23:28:57.143Z,96508.38
2023-03-13T23:31:59.928Z,96512.22
2023-03-13T23:35:03.440Z,96555.50
2023-03-13T23:38:06.299Z,96584.41
2023-03-13T23:41:12.751Z,96582.97
2023-03-13T23:44:15.592Z,96583.56
2023-03-13T23:47:18.306Z,96584.16
2023-03-13T23:50:21.320Z,96577.56
2023-03-13T23:53:24.272Z,96574.56
2023-03-13T23:56:29.637Z,96571.75
2023-03-13T23:59:32.508Z,96538.34
